createdAt,value
2018-02-09T00:02:10.809Z,1.00
2018-02-09T00:04:39.986Z,1.10
2018-02-09T00:07:08.061Z,1.10
2018-02-09T00:09:36.134Z,1.00
2018-02-09T00:12:04.197Z,1.10
2018-02-09T00:14:33.048Z,1.10
2018-02-09T00:17:01.119Z,0.90
2018-02-09T00:19:29.181Z,0.90
2018-02-09T00:21:57.246Z,1.00
2018-02-09T00:24:25.310Z,1.00
2018-02-09T00:26:53.381Z,0.90
2018-02-09T00:29:21.501Z,0.90
2018-02-09T00:31:49.577Z,0.90
2018-02-09T00:34:17.653Z,0.80
2018-02-09T00:36:45.726Z,0.90
2018-02-09T00:39:13.809Z,0.80
2018-02-09T00:41:41.866Z,0.90
2018-02-09T00:44:12.309Z,0.80
2018-02-09T00:46:41.321Z,0.80
2018-02-09T00:49:10.597Z,0.80
2018-02-09T00:51:38.670Z,0.80
2018-02-09T00:54:06.749Z,0.80
2018-02-09T00:56:34.813Z,0.80
2018-02-09T00:59:02.890Z,0.90
2018-02-09T01:01:30.993Z,0.80
2018-02-09T01:03:59.057Z,0.90
2018-02-09T01:06:27.146Z,1.20
2018-02-09T01:08:55.226Z,1.20
2018-02-09T01:11:23.286Z,1.30
2018-02-09T01:13:51.987Z,1.30
2018-02-09T01:16:20.061Z,1.20
2018-02-09T01:18:48.138Z,1.10
2018-02-09T01:21:16.222Z,1.20
2018-02-09T01:23:44.281Z,1.20
2018-02-09T01:26:12.355Z,1.20
2018-02-09T01:28:41.273Z,1.10
2018-02-09T01:31:09.453Z,1.10
2018-02-09T01:33:37.537Z,1.10
2018-02-09T01:36:06.197Z,1.10
2018-02-09T01:38:34.258Z,1.10
2018-02-09T01:41:02.321Z,1.00
2018-02-09T01:43:30.382Z,0.90
2018-02-09T01:45:59.213Z,0.80
2018-02-09T01:48:27.275Z,0.90
2018-02-09T01:50:55.351Z,0.90
2018-02-09T01:53:23.409Z,1.00
2018-02-09T01:55:52.357Z,1.00
2018-02-09T01:58:21.126Z,1.10
2018-02-09T02:00:49.186Z,1.00
2018-02-09T02:03:17.303Z,1.00
2018-02-09T02:05:45.378Z,1.20
2018-02-09T02:08:13.435Z,1.10
2018-02-09T02:10:42.657Z,1.10
2018-02-09T02:13:10.841Z,1.10
2018-02-09T02:15:38.893Z,1.10
2018-02-09T02:18:06.954Z,1.00
2018-02-09T02:20:35.024Z,1.00
2018-02-09T02:23:03.082Z,1.00
2018-02-09T02:25:31.914Z,1.10
2018-02-09T02:27:59.976Z,1.00
2018-02-09T02:30:28.052Z,1.20
2018-02-09T02:32:56.157Z,1.10
2018-02-09T02:35:24.261Z,1.20
2018-02-09T02:37:53.837Z,1.00
2018-02-09T02:40:21.930Z,1.10
2018-02-09T02:42:49.982Z,1.10
2018-02-09T02:45:18.042Z,1.00
2018-02-09T02:47:46.153Z,1.00
2018-02-09T02:50:14.203Z,1.00
2018-02-09T02:52:43.949Z,0.90
2018-02-09T02:55:13.123Z,1.00
2018-02-09T02:57:41.212Z,1.10
2018-02-09T03:00:09.281Z,1.00
2018-02-09T03:02:37.341Z,1.20
2018-02-09T03:05:05.451Z,1.10
2018-02-09T03:07:33.525Z,0.90
2018-02-09T03:10:01.582Z,1.00
2018-02-09T03:12:29.649Z,1.00
2018-02-09T03:14:57.756Z,1.00
2018-02-09T03:17:25.822Z,1.00
2018-02-09T03:19:53.883Z,1.00
2018-02-09T03:22:21.943Z,1.10
2018-02-09T03:24:50.065Z,1.20
2018-02-09T03:27:18.133Z,1.30
2018-02-09T03:29:46.193Z,1.30
2018-02-09T03:32:14.617Z,1.10
2018-02-09T03:34:44.390Z,1.10
2018-02-09T03:37:13.573Z,1.00
2018-02-09T03:39:41.629Z,0.90
2018-02-09T03:42:11.102Z,0.90
2018-02-09T03:44:39.170Z,0.70
2018-02-09T03:47:07.229Z,0.70
2018-02-09T03:49:35.337Z,0.90
2018-02-09T03:52:03.509Z,0.90
2018-02-09T03:54:31.588Z,0.90
2018-02-09T03:56:59.650Z,0.90
2018-02-09T03:59:27.705Z,1.00
2018-02-09T04:01:55.809Z,1.00
2018-02-09T04:04:23.865Z,1.00
2018-02-09T04:06:51.933Z,0.80
2018-02-09T04:09:20.041Z,0.90
2018-02-09T04:11:48.217Z,0.90
2018-02-09T04:14:16.289Z,0.90
2018-02-09T04:16:44.349Z,0.90
2018-02-09T04:19:12.445Z,0.80
2018-02-09T04:21:40.514Z,1.20
2018-02-09T04:24:08.569Z,1.40
2018-02-09T04:26:36.677Z,1.20
2018-02-09T04:29:04.751Z,1.10
2018-02-09T04:31:32.845Z,1.10
2018-02-09T04:34:00.894Z,1.00
2018-02-09T04:36:28.978Z,0.90
2018-02-09T04:38:57.129Z,0.90
2018-02-09T04:41:25.245Z,0.90
2018-02-09T04:43:53.429Z,0.90
2018-02-09T04:46:21.470Z,0.80
2018-02-09T04:48:49.573Z,0.90
2018-02-09T04:51:17.638Z,0.90
2018-02-09T04:53:45.705Z,0.90
2018-02-09T04:56:15.225Z,1.00
2018-02-09T04:58:44.421Z,0.80
2018-02-09T05:01:12.505Z,0.90
2018-02-09T05:03:40.592Z,1.00
2018-02-09T05:06:08.666Z,1.00
2018-02-09T05:08:36.746Z,0.80
2018-02-09T05:11:04.813Z,1.00
2018-02-09T05:13:32.884Z,0.90
2018-02-09T05:16:00.937Z,0.80
2018-02-09T05:18:29.143Z,0.80
2018-02-09T05:20:57.227Z,0.80
2018-02-09T05:23:25.277Z,0.70
2018-02-09T05:25:53.371Z,0.70
2018-02-09T05:28:21.453Z,0.70
2018-02-09T05:30:49.523Z,0.90
2018-02-09T05:33:17.598Z,0.80
2018-02-09T05:35:45.650Z,1.00
2018-02-09T05:38:14.837Z,0.90
2018-02-09T05:40:42.903Z,1.00
2018-02-09T05:43:11.764Z,1.00
2018-02-09T05:45:39.809Z,0.90
2018-02-09T05:48:07.902Z,1.00
2018-02-09T05:50:35.977Z,0.80
2018-02-09T05:53:04.046Z,0.90
2018-02-09T05:55:32.097Z,1.90
2018-02-09T05:58:00.165Z,1.80
2018-02-09T06:00:28.282Z,1.50
2018-02-09T06:02:56.361Z,1.20
2018-02-09T06:05:24.422Z,1.10
2018-02-09T06:07:52.501Z,1.10
2018-02-09T06:10:20.557Z,1.20
2018-02-09T06:12:48.669Z,1.00
2018-02-09T06:15:16.726Z,1.00
2018-02-09T06:17:45.349Z,1.00
2018-02-09T06:20:13.413Z,1.00
2018-02-09T06:22:41.536Z,0.90
2018-02-09T06:25:10.357Z,1.10
2018-02-09T06:27:38.419Z,1.10
2018-02-09T06:30:06.529Z,1.10
2018-02-09T06:32:34.621Z,1.10
2018-02-09T06:35:02.668Z,0.90
2018-02-09T06:37:30.726Z,0.80
2018-02-09T06:39:58.801Z,0.80
2018-02-09T06:42:26.871Z,0.90
2018-02-09T06:44:55.001Z,0.90
2018-02-09T06:47:23.228Z,0.90
2018-02-09T06:49:51.249Z,1.00
2018-02-09T06:52:19.333Z,1.00
2018-02-09T06:54:47.493Z,0.90
2018-02-09T06:57:16.376Z,1.20
2018-02-09T06:59:46.321Z,1.20
2018-02-09T07:02:15.505Z,1.10
2018-02-09T07:04:43.685Z,1.10
2018-02-09T07:07:11.750Z,1.00
2018-02-09T07:09:39.810Z,1.00
2018-02-09T07:12:07.922Z,1.00
2018-02-09T07:14:35.985Z,1.10
2018-02-09T07:17:04.040Z,1.30
2018-02-09T07:19:32.121Z,1.30
2018-02-09T07:22:00.182Z,1.30
2018-02-09T07:24:29.021Z,1.20
2018-02-09T07:26:57.097Z,1.30
2018-02-09T07:29:25.175Z,1.40
2018-02-09T07:31:53.238Z,1.30
2018-02-09T07:34:21.289Z,1.30
2018-02-09T07:36:49.362Z,1.40
2018-02-09T07:39:17.678Z,1.50
2018-02-09T07:41:46.112Z,1.40
2018-02-09T07:44:16.049Z,1.40
2018-02-09T07:46:44.105Z,1.50
2018-02-09T07:49:13.467Z,1.40
2018-02-09T07:51:41.537Z,1.40
2018-02-09T07:54:09.593Z,1.50
2018-02-09T07:56:37.659Z,1.80
2018-02-09T07:59:05.716Z,1.80
2018-02-09T08:01:34.546Z,1.90
2018-02-09T08:04:02.604Z,2.70
2018-02-09T08:06:30.709Z,4.60
2018-02-09T08:08:58.793Z,4.10
2018-02-09T08:11:26.903Z,4.40
2018-02-09T08:13:55.718Z,4.80
2018-02-09T08:16:23.782Z,4.40
2018-02-09T08:18:52.625Z,3.80
2018-02-09T08:21:20.705Z,3.20
2018-02-09T08:23:48.754Z,3.00
2018-02-09T08:26:17.778Z,2.30
2018-02-09T08:28:45.838Z,2.40
2018-02-09T08:31:13.933Z,2.30
2018-02-09T08:33:41.992Z,2.40
2018-02-09T08:36:10.073Z,2.50
2018-02-09T08:38:38.289Z,2.40
2018-02-09T08:41:06.411Z,2.50
2018-02-09T08:43:34.552Z,2.40
2018-02-09T08:46:02.727Z,2.20
2018-02-09T08:48:30.906Z,2.30
2018-02-09T08:50:59.777Z,2.00
2018-02-09T08:53:27.842Z,2.20
2018-02-09T08:55:56.665Z,2.20
2018-02-09T08:58:24.721Z,2.00
2018-02-09T09:00:52.797Z,2.10
2018-02-09T09:03:20.849Z,2.00
2018-02-09T09:05:49.253Z,1.90
2018-02-09T09:08:18.152Z,1.80
2018-02-09T09:10:46.216Z,2.00
2018-02-09T09:13:14.297Z,2.10
2018-02-09T09:15:43.393Z,2.10
2018-02-09T09:18:11.463Z,2.20
2018-02-09T09:20:39.565Z,2.30
2018-02-09T09:23:07.625Z,2.30
2018-02-09T09:25:35.689Z,2.40
2018-02-09T09:28:03.779Z,2.20
2018-02-09T09:30:32.648Z,2.20
2018-02-09T09:33:00.723Z,2.40
2018-02-09T09:35:28.773Z,2.50
2018-02-09T09:37:57.601Z,2.40
2018-02-09T09:40:25.701Z,2.30
2018-02-09T09:42:53.760Z,2.40
2018-02-09T09:45:21.852Z,2.40
2018-02-09T09:47:49.913Z,2.10
2018-02-09T09:50:18.262Z,2.00
2018-02-09T09:52:48.208Z,1.90
2018-02-09T09:55:16.272Z,2.10
2018-02-09T09:57:44.333Z,2.30
2018-02-09T10:00:13.154Z,2.30
2018-02-09T10:02:41.227Z,2.40
2018-02-09T10:05:09.330Z,2.50
2018-02-09T10:07:37.405Z,2.40
2018-02-09T10:10:05.461Z,2.20
2018-02-09T10:12:34.382Z,2.20
2018-02-09T10:15:02.429Z,2.20
2018-02-09T10:17:30.533Z,2.10
2018-02-09T10:19:58.585Z,2.20
2018-02-09T10:22:26.646Z,2.20
2018-02-09T10:24:54.710Z,2.20
2018-02-09T10:27:23.658Z,2.20
2018-02-09T10:29:51.757Z,2.30
2018-02-09T10:32:19.910Z,2.40
2018-02-09T10:34:47.966Z,2.50
2018-02-09T10:37:16.026Z,2.60
2018-02-09T10:39:44.082Z,2.50
2018-02-09T10:42:13.072Z,2.30
2018-02-09T10:44:41.085Z,2.30
2018-02-09T10:47:09.190Z,2.10
2018-02-09T10:49:37.268Z,2.10
2018-02-09T10:52:05.336Z,2.20
2018-02-09T10:54:33.416Z,2.40
2018-02-09T10:57:01.493Z,2.40
2018-02-09T10:59:29.554Z,2.50
2018-02-09T11:01:57.606Z,2.60
2018-02-09T11:04:25.663Z,2.50
2018-02-09T11:06:54.526Z,2.50
2018-02-09T11:09:29.818Z,2.50
2018-02-09T11:12:01.749Z,2.40
2018-02-09T11:14:30.615Z,2.60
2018-02-09T11:16:58.662Z,2.40
2018-02-09T11:19:26.727Z,2.20
2018-02-09T11:21:54.789Z,1.70
2018-02-09T11:24:22.921Z,1.90
2018-02-09T11:26:51.061Z,2.10
2018-02-09T11:29:19.105Z,2.20
2018-02-09T11:31:49.066Z,2.30
2018-02-09T11:34:17.339Z,2.50
2018-02-09T11:36:45.502Z,2.60
2018-02-09T11:39:13.566Z,2.50
2018-02-09T11:41:42.386Z,2.40
2018-02-09T11:44:10.466Z,2.30
2018-02-09T11:46:38.582Z,2.30
2018-02-09T11:49:06.746Z,2.10
2018-02-09T11:51:34.822Z,2.50
2018-02-09T11:54:02.886Z,2.60
2018-02-09T11:56:31.005Z,2.40
2018-02-09T11:58:59.824Z,2.60
2018-02-09T12:01:27.940Z,2.40
2018-02-09T12:03:55.997Z,2.40
2018-02-09T12:06:24.057Z,2.50
2018-02-09T12:08:52.498Z,2.40
2018-02-09T12:11:20.562Z,2.70
2018-02-09T12:13:48.845Z,2.40
2018-02-09T12:16:16.901Z,2.40
2018-02-09T12:18:44.953Z,2.50
2018-02-09T12:21:13.043Z,2.40
2018-02-09T12:23:41.449Z,2.50
2018-02-09T12:26:09.565Z,2.50
2018-02-09T12:28:38.421Z,2.20
2018-02-09T12:31:06.493Z,2.30
2018-02-09T12:33:34.644Z,2.60
2018-02-09T12:36:02.741Z,2.70
2018-02-09T12:38:30.797Z,2.70
2018-02-09T12:40:58.896Z,2.60
2018-02-09T12:43:26.958Z,2.60
2018-02-09T12:45:55.026Z,2.60
2018-02-09T12:48:23.135Z,2.50
2018-02-09T12:50:51.217Z,2.40
2018-02-09T12:53:19.344Z,2.80
2018-02-09T12:55:49.297Z,3.30
2018-02-09T12:58:17.361Z,3.90
2018-02-09T13:00:45.427Z,3.80
2018-02-09T13:03:13.481Z,3.50
2018-02-09T13:05:42.325Z,3.30
2018-02-09T13:08:10.470Z,3.10
2018-02-09T13:10:38.594Z,3.20
2018-02-09T13:13:12.810Z,2.80
2018-02-09T13:15:41.156Z,2.70
2018-02-09T13:18:09.493Z,2.60
2018-02-09T13:20:37.666Z,2.70
2018-02-09T13:23:24.380Z,2.40
2018-02-09T13:25:52.454Z,2.40
2018-02-09T13:28:38.609Z,2.40
2018-02-09T13:31:06.665Z,2.40
2018-02-09T13:33:34.730Z,2.20
2018-02-09T13:36:02.837Z,2.30
2018-02-09T13:38:30.913Z,2.10
2018-02-09T13:40:58.977Z,2.30
2018-02-09T13:43:27.053Z,2.40
2018-02-09T13:45:55.473Z,2.70
2018-02-09T13:48:23.704Z,2.60
2018-02-09T13:50:51.789Z,2.30
2018-02-09T13:53:20.689Z,2.40
2018-02-09T13:55:49.190Z,2.30
2018-02-09T13:58:17.781Z,2.30
2018-02-09T14:00:45.874Z,2.50
2018-02-09T14:03:14.845Z,2.50
2018-02-09T14:05:42.896Z,2.50
2018-02-09T14:08:11.011Z,2.40
2018-02-09T14:10:39.073Z,2.50
2018-02-09T14:13:07.162Z,2.50
2018-02-09T14:15:35.312Z,2.30
2018-02-09T14:18:03.406Z,2.30
2018-02-09T14:20:31.763Z,2.20
2018-02-09T14:22:59.915Z,2.10
2018-02-09T14:25:28.733Z,2.30
2018-02-09T14:27:56.983Z,2.20
2018-02-09T14:30:25.125Z,2.10
2018-02-09T14:32:53.188Z,2.20
2018-02-09T14:35:21.273Z,2.10
2018-02-09T14:37:49.369Z,2.10
2018-02-09T14:40:17.425Z,2.10
2018-02-09T14:42:45.486Z,1.80
2018-02-09T14:45:13.769Z,1.80
2018-02-09T14:47:41.957Z,1.80
2018-02-09T14:50:10.059Z,1.90
2018-02-09T14:52:38.213Z,2.00
2018-02-09T14:55:06.390Z,1.90
2018-02-09T14:57:34.580Z,1.80
2018-02-09T15:00:02.810Z,1.60
2018-02-09T15:02:31.629Z,1.70
2018-02-09T15:04:59.721Z,1.60
2018-02-09T15:07:27.797Z,1.70
2018-02-09T15:09:55.943Z,1.80
2018-02-09T15:12:24.081Z,1.90
2018-02-09T15:14:52.182Z,1.30
2018-02-09T15:17:21.019Z,1.10
2018-02-09T15:19:49.745Z,1.30
2018-02-09T15:22:17.793Z,1.50
2018-02-09T15:24:45.854Z,1.70
2018-02-09T15:27:13.925Z,1.80
2018-02-09T15:29:42.021Z,1.90
2018-02-09T15:32:10.105Z,1.80
2018-02-09T15:34:38.229Z,1.80
2018-02-09T15:37:07.073Z,1.80
2018-02-09T15:39:35.150Z,1.60
2018-02-09T15:42:03.331Z,1.40
2018-02-09T15:44:31.412Z,1.50
2018-02-09T15:46:59.652Z,1.70
2018-02-09T15:49:27.698Z,1.60
2018-02-09T15:51:56.549Z,1.60
2018-02-09T15:54:24.669Z,1.30
2018-02-09T15:56:52.730Z,1.30
2018-02-09T15:59:20.890Z,1.10
2018-02-09T16:01:50.900Z,1.10
2018-02-09T16:04:20.073Z,1.20
2018-02-09T16:06:48.140Z,1.60
2018-02-09T16:09:16.201Z,1.40
2018-02-09T16:11:45.049Z,1.60
2018-02-09T16:14:13.121Z,1.70
2018-02-09T16:16:41.193Z,1.70
2018-02-09T16:19:09.277Z,1.70
2018-02-09T16:21:37.353Z,1.50
2018-02-09T16:24:05.542Z,1.70
2018-02-09T16:26:33.594Z,1.40
2018-02-09T16:29:01.657Z,1.30
2018-02-09T16:31:29.734Z,1.30
2018-02-09T16:33:57.798Z,1.40
2018-02-09T16:36:26.605Z,1.40
2018-02-09T16:38:54.667Z,1.40
2018-02-09T16:41:22.789Z,1.10
2018-02-09T16:43:50.853Z,1.20
2018-02-09T16:46:20.469Z,1.10
2018-02-09T16:48:48.535Z,1.10
2018-02-09T16:51:16.610Z,1.00
2018-02-09T16:53:44.666Z,1.20
2018-02-09T16:56:12.717Z,1.30
2018-02-09T16:58:41.570Z,1.20
2018-02-09T17:01:09.654Z,1.10
2018-02-09T17:03:37.713Z,1.30
2018-02-09T17:06:05.766Z,1.10
2018-02-09T17:08:33.829Z,1.30
2018-02-09T17:11:01.991Z,1.30
2018-02-09T17:13:30.035Z,1.30
2018-02-09T17:15:58.090Z,1.20
2018-02-09T17:18:26.185Z,1.10
2018-02-09T17:20:54.264Z,1.30
2018-02-09T17:23:22.325Z,1.30
2018-02-09T17:25:50.817Z,1.50
2018-02-09T17:28:18.886Z,1.30
2018-02-09T17:30:46.970Z,1.20
2018-02-09T17:33:15.037Z,1.20
2018-02-09T17:35:43.100Z,1.10
2018-02-09T17:38:11.163Z,0.70
2018-02-09T17:40:39.244Z,0.60
2018-02-09T17:43:07.350Z,0.80
2018-02-09T17:45:35.467Z,1.00
2018-02-09T17:48:03.533Z,1.00
2018-02-09T17:50:31.594Z,0.90
2018-02-09T17:52:59.657Z,1.10
2018-02-09T17:55:27.757Z,1.10
2018-02-09T17:57:55.802Z,1.10
2018-02-09T18:00:23.857Z,1.00
2018-02-09T18:02:51.909Z,1.10
2018-02-09T18:05:21.871Z,1.00
2018-02-09T18:07:52.086Z,1.10
2018-02-09T18:10:21.294Z,1.00
2018-02-09T18:12:49.341Z,1.00
2018-02-09T18:15:17.400Z,0.90
2018-02-09T18:17:46.262Z,0.80
2018-02-09T18:20:14.450Z,1.00
2018-02-09T18:22:42.505Z,0.90
2018-02-09T18:25:10.588Z,0.80
2018-02-09T18:27:38.958Z,0.90
2018-02-09T18:30:07.042Z,0.80
2018-02-09T18:32:35.109Z,0.90
2018-02-09T18:35:03.166Z,0.50
2018-02-09T18:37:31.226Z,0.40
2018-02-09T18:40:00.139Z,0.40
2018-02-09T18:42:28.241Z,0.50
2018-02-09T18:44:56.301Z,0.70
2018-02-09T18:47:24.387Z,0.90
2018-02-09T18:49:52.466Z,0.90
2018-02-09T18:52:22.299Z,0.80
2018-02-09T18:54:52.315Z,0.90
2018-02-09T18:57:21.513Z,0.90
2018-02-09T18:59:49.593Z,1.10
2018-02-09T19:02:17.678Z,1.10
2018-02-09T19:04:45.749Z,1.00
2018-02-09T19:07:13.924Z,1.10
2018-02-09T19:09:42.007Z,0.90
2018-02-09T19:12:10.065Z,1.00
2018-02-09T19:14:38.257Z,1.10
2018-02-09T19:17:06.429Z,1.10
2018-02-09T19:19:34.485Z,1.00
2018-02-09T19:22:02.557Z,0.90
2018-02-09T19:24:30.608Z,1.00
2018-02-09T19:26:59.452Z,1.00
2018-02-09T19:29:27.552Z,1.00
2018-02-09T19:31:55.593Z,1.10
2018-02-09T19:34:23.650Z,1.20
2018-02-09T19:36:51.882Z,1.30
2018-02-09T19:39:19.939Z,1.20
2018-02-09T19:41:47.995Z,1.10
2018-02-09T19:44:16.052Z,1.10
2018-02-09T19:46:44.118Z,1.10
2018-02-09T19:49:12.946Z,1.00
2018-02-09T19:51:41.035Z,0.90
2018-02-09T19:54:09.115Z,0.90
2018-02-09T19:59:39.645Z,1.10
2018-02-09T20:02:07.753Z,0.80
2018-02-09T20:04:35.754Z,1.00
2018-02-09T20:07:03.814Z,1.00
2018-02-09T20:09:31.861Z,0.90
2018-02-09T20:11:59.932Z,0.90
2018-02-09T20:14:28.085Z,1.10
2018-02-09T20:16:56.167Z,1.00
2018-02-09T20:19:24.229Z,1.00
2018-02-09T20:21:52.286Z,1.00
2018-02-09T20:24:20.357Z,1.30
2018-02-09T20:26:48.573Z,1.30
2018-02-09T20:29:16.621Z,1.10
2018-02-09T20:31:44.721Z,1.30
2018-02-09T20:34:12.787Z,1.20
2018-02-09T20:36:40.850Z,1.00
2018-02-09T20:39:08.911Z,0.70
2018-02-09T20:41:36.969Z,0.90
2018-02-09T20:44:05.790Z,1.00
2018-02-09T20:46:33.850Z,1.10
2018-02-09T20:49:01.911Z,1.40
2018-02-09T20:51:30.767Z,1.30
2018-02-09T20:53:58.941Z,1.30
2018-02-09T20:56:26.991Z,1.20
2018-02-09T20:58:55.088Z,1.10
2018-02-09T21:01:23.207Z,1.10
2018-02-09T21:03:53.169Z,1.20
2018-02-09T21:06:22.355Z,1.20
2018-02-09T21:08:50.465Z,1.20
2018-02-09T21:11:18.561Z,1.20
2018-02-09T21:13:46.631Z,1.10
2018-02-09T21:16:14.690Z,1.30
2018-02-09T21:18:42.784Z,2.00
2018-02-09T21:21:10.849Z,3.10
2018-02-09T21:23:38.910Z,3.00
2018-02-09T21:26:06.992Z,3.00
2018-02-09T21:28:35.043Z,3.10
2018-02-09T21:31:03.169Z,3.20
2018-02-09T21:33:31.233Z,3.10
2018-02-09T21:35:59.293Z,2.50
2018-02-09T21:38:27.898Z,2.40
2018-02-09T21:40:56.082Z,1.80
2018-02-09T21:43:24.169Z,1.20
2018-02-09T21:45:53.629Z,1.30
2018-02-09T21:48:22.816Z,1.30
2018-02-09T21:50:52.763Z,1.10
2018-02-09T21:53:20.835Z,1.10
2018-02-09T21:55:48.901Z,1.10
2018-02-09T21:58:17.833Z,1.20
2018-02-09T22:00:45.909Z,1.10
2018-02-09T22:03:13.981Z,0.80
2018-02-09T22:05:43.186Z,0.90
2018-02-09T22:08:11.639Z,0.90
2018-02-09T22:10:39.970Z,0.90
2018-02-09T22:13:08.027Z,1.20
2018-02-09T22:15:36.094Z,1.20
2018-02-09T22:18:04.166Z,1.30
2018-02-09T22:20:32.289Z,1.10
2018-02-09T22:23:00.428Z,1.10
2018-02-09T22:25:28.539Z,1.30
2018-02-09T22:27:56.713Z,1.10
2018-02-09T22:30:24.977Z,1.00
2018-02-09T22:32:53.373Z,1.10
2018-02-09T22:35:21.558Z,1.00
2018-02-09T22:37:49.805Z,1.00
2018-02-09T22:40:17.934Z,1.00
2018-02-09T22:42:46.785Z,0.90
2018-02-09T22:45:14.890Z,0.90
2018-02-09T22:47:42.965Z,0.70
2018-02-09T22:50:11.035Z,0.70
2018-02-09T22:52:39.102Z,0.80
2018-02-09T22:55:07.233Z,0.90
2018-02-09T22:57:35.371Z,0.90
2018-02-09T23:00:03.438Z,0.90
2018-02-09T23:02:33.025Z,0.80
2018-02-09T23:05:01.176Z,0.80
2018-02-09T23:07:29.297Z,0.80
2018-02-09T23:09:57.357Z,0.90
2018-02-09T23:12:26.157Z,0.90
2018-02-09T23:14:54.224Z,0.90
2018-02-09T23:17:22.301Z,0.80
2018-02-09T23:19:50.373Z,0.80
2018-02-09T23:22:18.461Z,0.80
2018-02-09T23:24:46.524Z,0.90
2018-02-09T23:27:14.581Z,1.00
2018-02-09T23:29:42.693Z,0.90
2018-02-09T23:32:10.749Z,0.90
2018-02-09T23:34:39.168Z,0.90
2018-02-09T23:37:07.216Z,0.90
2018-02-09T23:39:35.308Z,0.90
2018-02-09T23:42:03.385Z,1.00
2018-02-09T23:44:31.447Z,1.00
2018-02-09T23:46:59.529Z,0.90
2018-02-09T23:49:27.600Z,1.10
2018-02-09T23:51:55.669Z,1.10
2018-02-09T23:54:23.989Z,1.20
2018-02-09T23:56:52.044Z,1.30
2018-02-09T23:59:20.110Z,1.40
